Blanton, Texas
Current Conditions -  °F | °C
As of 12:55 AM on Friday 28 Nov 2014 (Local Time) from KCOM Reporting Station
Clear Clear  
Wind Chill: 38°   Ceiling: Unl
Heat Index: 42°   Visibility: 10mi
Dew Point: 34°   Wind: 7mph
Humidity: 72%   Direction: 200°SSW
Pressure: 30.3"   Gusts: NA
Location:  31.7639°N, 99.8991°W
Report Text: KCOM 280655Z AUTO 20006KT 10SM CLR 06/01 A3030 RMK AO2 T00560009
Loading
Personal Weather Stations






























Interactive Weather Map New forecast layout! Learn more

10-Day Weather Forecast

Advertisements
Track Severe Weather on mobile